Flight Track Log - Related Links

Times and Time Zones

All times are in EDT time to prevent confusion due to time zone crossing. See the N717AN flight status page for this flight to view local times or setup timezone preferences in your user account.

Time Position Orientation Groundspeed Altitude Reporting Facility
EDT Latitude Longitude Course Direction KTS MPH feet Rate Location/Type
Thu 06:22:22 PM 40.6110 -73.7940 213° Southwest 178 205 800  Level FlightAware ADS-B
Thu 06:22:47 PM 40.5920 -73.8080 209° Southwest 201 231 1,300 1,067 Climbing FlightAware ADS-B
Thu 06:23:07 PM 40.5750 -73.8160 200° South 223 257 1,600 1,067 Climbing FlightAware ADS-B
Thu 06:23:32 PM 40.5500 -73.8010 155° Southeast 242 278 2,100 1,680 Climbing FlightAware ADS-B
Thu 06:23:57 PM 40.5360 -73.7700 121° Southeast 250 288 3,000 2,291 Climbing FlightAware ADS-B
Thu 06:24:27 PM 40.5190 -73.7290 119° Southeast 254 292 4,200 1,600 Climbing FlightAware ADS-B
Thu 06:24:57 PM 40.5010 -73.6860 119° Southeast 254 292 4,600 436 Climbing FlightAware ADS-B
Thu 06:25:22 PM 40.4870 -73.6540 120° Southeast 254 292 4,600  Level FlightAware ADS-B
Thu 06:25:42 PM 40.4749 -73.6245 118° Southeast 255 293 4,600  Level FlightAware ADS-B
Thu 06:25:57 PM 40.4660 -73.6041 120° Southeast 254 292 4,600  Level FlightAware ADS-B
Thu 06:26:12 PM 40.4575 -73.5842 119° Southeast 255 293 4,600  Level FlightAware ADS-B
Thu 06:26:42 PM 40.4440 -73.5440 114° Southeast 251 289 4,600  Level FlightAware ADS-B
Thu 06:27:17 PM 40.4550 -73.4950 74° East 249 287 4,600 500 Level FlightAware ADS-B
Thu 06:27:42 PM 40.4670 -73.4590 66° East 256 295 5,100 2,100 Climbing FlightAware ADS-B
Thu 06:27:57 PM 40.4740 -73.4390 65° Northeast 248 285 6,000 2,667 Climbing FlightAware ADS-B
Thu 06:28:27 PM 40.4880 -73.3970 66° East 254 292 7,100 2,250 Climbing FlightAware ADS-B
Thu 06:28:53 PM 40.4999 -73.3558 69° East 259 298 8,100 2,400 Climbing FlightAware ADS-B
Thu 06:29:02 PM 40.5009 -73.3411 85° East 262 302 8,500 2,471 Climbing FlightAware ADS-B
Thu 06:29:10 PM 40.4999 -73.3284 96° East 266 306 8,800 1,729 Climbing FlightAware ADS-B
Thu 06:30:01 PM 40.5015 -73.2463 89° East 268 308 10,200 1,448 Climbing FlightAware ADS-B
Thu 06:30:08 PM 40.5031 -73.2322 82° East 295 339 10,200 900 Level FlightAware ADS-B
Thu 06:30:21 PM 40.5061 -73.2094 80° East 307 353 10,500 1,412 Climbing FlightAware ADS-B
Thu 06:30:59 PM 40.5161 -73.1357 80° East 333 383 11,400 1,652 Climbing FlightAware ADS-B
Thu 06:31:30 PM 40.5238 -73.0717 81° East 359 413 12,400 2,873 Climbing FlightAware ADS-B
Thu 06:32:10 PM 40.5340 -72.9857 81° East 363 418 14,800 3,000 Climbing FlightAware ADS-B
Thu 06:32:44 PM 40.5438 -72.9094 80° East 368 423 16,100 2,376 Climbing FlightAware ADS-B
Thu 06:33:51 PM 40.5629 -72.7550 81° East 368 423 18,800 2,330 Climbing FlightAware ADS-B
Thu 06:34:27 PM 40.5731 -72.6713 81° East 397 457 20,100 2,148 Climbing FlightAware ADS-B
Thu 06:35:12 PM 40.5860 -72.5610 81° East 413 475 21,700 1,765 Climbing FlightAware ADS-B
Thu 06:35:52 PM 40.5980 -72.4660 81° East 429 494 22,600 1,553 Climbing FlightAware ADS-B
Thu 06:36:37 PM 40.6110 -72.3560 81° East 430 495 23,900 1,765 Climbing FlightAware ADS-B
Thu 06:37:17 PM 40.6240 -72.2480 81° East 441 507 25,100 1,765 Climbing FlightAware ADS-B
Thu 06:38:02 PM 40.6390 -72.1180 81° East 455 524 26,400 1,624 Climbing FlightAware ADS-B
Thu 06:38:42 PM 40.6510 -72.0120 81° East 461 531 27,400 1,425 Climbing FlightAware ADS-B
Thu 06:39:22 PM 40.6630 -71.9060 81° East 471 542 28,300 1,478 Climbing FlightAware ADS-B
Thu 06:39:51 PM 40.6744 -71.8086 81° East 480 552 29,100 825 Climbing FlightAware ADS-B
Thu 06:40:42 PM 40.6900 -71.6770 81° East 481 554 29,400 1,406 Climbing FlightAware ADS-B
Thu 06:40:55 PM 40.6955 -71.6219 82° East 491 565 30,600 1,800 Climbing FlightAware ADS-B
Thu 06:42:42 PM 40.7280 -71.3250 82° East 475 547 33,000 917 Climbing FlightAware ADS-B
Thu 06:43:32 PM 40.7440 -71.1840 81° East 474 545 33,000  Level FlightAware ADS-B
Thu 06:44:12 PM 40.7560 -71.0870 81° East 474 545 33,000  Level FlightAware ADS-B
Thu 06:45:02 PM 40.7700 -70.9650 81° East 474 545 33,000  Level FlightAware ADS-B
Thu 06:45:42 PM 40.7820 -70.8680 81° East 474 545 33,000  Level FlightAware ADS-B
Thu 06:46:22 PM 40.7940 -70.7050 84° East 473 544 33,000  Level FlightAware ADS-B
Thu 06:47:02 PM 40.8070 -70.5850 82° East 473 544 33,000  Level FlightAware ADS-B
Thu 06:47:47 PM 40.8200 -70.4620 82° East 473 544 33,000  Level FlightAware ADS-B
Thu 06:48:27 PM 40.8300 -70.3640 82° East 473 544 33,000  Level FlightAware ADS-B
Thu 06:49:07 PM 40.8410 -70.2350 84° East 473 544 33,000  Level FlightAware ADS-B
Thu 06:49:47 PM 40.8500 -70.1380 83° East 473 544 33,000  Level FlightAware ADS-B
Thu 06:50:37 PM 40.8620 -70.0160 83° East 473 544 33,000  Level FlightAware ADS-B
Thu 06:51:17 PM 40.8710 -69.9180 83° East 473 544 33,000  Level FlightAware ADS-B
Thu 06:51:57 PM 40.8800 -69.8200 83° East 473 544 33,000  Level FlightAware ADS-B
Thu 06:52:37 PM 40.8890 -69.7230 83° East 473 544 33,000  Level FlightAware ADS-B
Thu 06:53:17 PM 40.8980 -69.6250 83° East 473 544 33,000  Level FlightAware ADS-B
Thu 06:53:57 PM 40.9070 -69.5270 83° East 473 544 33,000  Level FlightAware ADS-B
Thu 06:54:47 PM 40.9180 -69.4050 83° East 473 544 33,000 -38 Level FlightAware ADS-B
Thu 06:55:22 PM 40.9440 -69.1600 82° East 33,000 -56 Level FlightAware ADS-B
Thu 06:56:35 PM 40.9600 -68.9617 82° East 461 531 32,900 -45 Descending New York Center
Thu 06:57:34 PM 40.9742 -68.7992 83° East 461 531 32,900 50 Level New York Center
Thu 06:58:34 PM 40.9861 -68.6506 84° East 461 531 33,000 50 Climbing New York Center
Thu 06:59:33 PM 41.0000 -68.4933 83° East 448 516 33,000 -50 Level New York Center
Thu 07:00:34 PM 41.0114 -68.3308 85° East 442 509 32,900 -50 Descending New York Center
Thu 07:01:33 PM 41.0269 -68.1708 83° East 442 509 32,900  Level New York Center
Thu 07:02:33 PM 41.0400 -68.0081 84° East 442 509 32,900  Level New York Center
Thu 07:03:34 PM 41.0528 -67.8425 84° East 447 514 32,900 50 Level New York Center
Thu 07:04:33 PM 41.0633 -67.6769 85° East 447 514 33,000 50 Climbing New York Center
Thu 07:05:33 PM 41.0797 -67.5111 82° East 447 514 33,000 -50 Level New York Center
Thu 07:06:33 PM 41.0897 -67.3428 85° East 452 520 32,900  Descending New York Center
Thu 07:07:35 PM 41.1033 -67.1686 84° East 458 527 33,000 42 Climbing New York Center
Thu 07:08:55 PM 41.1167 -67.0000 78° East 451 519 33,000  Level New York Oceanic (ODAPS)
Thu 07:15:00 PM 41.2892 -65.8741 79° East 451 519 33,000  Level FlightAware Transoceanic
Thu 07:16:00 PM 41.3130 -65.7128 79° East 451 519 33,000  Level FlightAware Transoceanic
Thu 07:17:00 PM 41.3365 -65.5514 79° East 451 519 33,000  Level FlightAware Transoceanic
Thu 07:18:00 PM 41.3598 -65.3898 79° East 451 519 33,000  Level FlightAware Transoceanic
Thu 07:18:22 PM 41.3667 -65.4000 79° East 462 532 33,000  Level New York Oceanic (ODAPS)
Thu 07:19:00 PM 41.3829 -65.2282 79° East 451 519 33,000  Level FlightAware Transoceanic
Thu 07:20:00 PM 41.4057 -65.0664 79° East 451 519 33,000  Level FlightAware Transoceanic
Thu 07:21:00 PM 41.4283 -64.9045 79° East 451 519 33,000  Level FlightAware Transoceanic
Thu 07:22:00 PM 41.4507 -64.7425 80° East 451 519 33,000  Level FlightAware Transoceanic
Thu 07:22:15 PM 41.4500 -64.7000 80° East 462 532 33,000  Level New York Oceanic (ODAPS)
Thu 07:23:00 PM 41.4729 -64.5804 80° East 451 519 33,000  Level FlightAware Transoceanic
Thu 07:24:00 PM 41.5046 -64.3959 80° East 462 532 33,000  Level FlightAware Transoceanic
Thu 07:25:00 PM 41.5267 -64.2281 80° East 462 532 33,000  Level FlightAware Transoceanic
Thu 07:26:00 PM 41.5486 -64.0603 80° East 462 532 33,000  Level FlightAware Transoceanic
Thu 07:27:00 PM 41.5703 -63.8923 80° East 462 532 33,000  Level FlightAware Transoceanic
Thu 07:28:00 PM 41.5887 -63.6627 80° East 462 532 33,000  Level FlightAware Transoceanic
Thu 07:29:00 PM 41.6109 -63.4894 80° East 462 532 33,000  Level FlightAware Transoceanic
Thu 07:30:00 PM 41.6329 -63.3160 80° East 462 532 33,000  Level FlightAware Transoceanic
Thu 07:31:00 PM 41.6546 -63.1424 81° East 462 532 33,000  Level FlightAware Transoceanic
Thu 07:32:00 PM 41.6760 -62.9688 81° East 462 532 33,000 882 Level FlightAware Transoceanic
Thu 07:32:08 PM 41.6667 -63.0167 81° East 471 542 34,000  Climbing New York Oceanic (ODAPS)
Thu 07:33:00 PM 41.6972 -62.7950 81° East 462 532 33,000 -536 Descending FlightAware Transoceanic
Thu 07:34:00 PM 41.7181 -62.6211 81° East 462 532 33,000  Level FlightAware Transoceanic
Thu 07:35:00 PM 41.7387 -62.4471 81° East 462 532 33,000  Level FlightAware Transoceanic
Thu 07:36:00 PM 41.7591 -62.2730 81° East 462 532 33,000  Level FlightAware Transoceanic
Thu 07:37:00 PM 41.7792 -62.0988 81° East 462 532 33,000 500 Level FlightAware Transoceanic
Thu 07:38:00 PM 41.7933 -61.9556 81° East 471 542 34,000 500 Climbing FlightAware Transoceanic
Thu 07:39:00 PM 41.8135 -61.7783 81° East 471 542 34,000  Level FlightAware Transoceanic
Thu 07:40:00 PM 41.8334 -61.6010 82° East 471 542 34,000  Level FlightAware Transoceanic
Thu 07:41:00 PM 41.8530 -61.4235 82° East 471 542 34,000  Level FlightAware Transoceanic
Thu 07:42:00 PM 41.8723 -61.2459 82° East 471 542 34,000  Level FlightAware Transoceanic
Thu 07:43:00 PM 41.8914 -61.0683 82° East 471 542 34,000  Level FlightAware Transoceanic
Thu 07:43:37 PM 41.9000 -61.0333 82° East 470 541 34,000  Level New York Oceanic (ODAPS)
Thu 07:44:00 PM 41.9102 -60.8905 82° East 471 542 34,000  Level FlightAware Transoceanic
Thu 07:45:00 PM 41.9287 -60.7126 82° East 471 542 34,000  Level FlightAware Transoceanic
Thu 07:45:54 PM 41.9333 -60.6167 82° East 454 522 34,000  Level New York Oceanic (ODAPS)
Thu 07:46:00 PM 41.9469 -60.5346 82° East 471 542 34,000  Level FlightAware Transoceanic
Thu 07:47:00 PM 41.9649 -60.3565 82° East 471 542 34,000  Level FlightAware Transoceanic
Thu 07:48:00 PM 41.9826 -60.1783 82° East 471 542 34,000  Level FlightAware Transoceanic
Thu 07:49:00 PM 42.0000 -60.0000 71° East 471 542 34,000  Level FlightAware Transoceanic
Thu 07:49:53 PM 42.0000 -60.0000 71° East 460 529 34,000  Level New York Oceanic (ODAPS)
Thu 07:50:00 PM 42.0403 -59.8389 71° East 470 541 34,000  Level FlightAware Transoceanic
Thu 07:51:00 PM 42.0804 -59.6776 72° East 470 541 34,000  Level FlightAware Transoceanic
Thu 07:52:00 PM 42.1203 -59.5162 72° East 454 522 34,000  Level FlightAware Transoceanic
Thu 07:53:00 PM 42.1599 -59.3545 72° East 454 522 34,000  Level FlightAware Transoceanic
Thu 07:54:00 PM 42.1993 -59.1926 72° East 454 522 34,000  Level FlightAware Transoceanic
Thu 07:55:00 PM 42.2385 -59.0305 72° East 454 522 34,000  Level FlightAware Transoceanic
Thu 07:56:00 PM 42.2775 -58.8682 72° East 460 529 34,000  Level FlightAware Transoceanic
Thu 07:57:00 PM 42.3162 -58.7057 72° East 460 529 34,000  Level FlightAware Transoceanic
Thu 07:58:00 PM 42.3547 -58.5430 72° East 460 529 34,000  Level FlightAware Transoceanic
Thu 07:59:00 PM 42.3929 -58.3801 72° East 460 529 34,000  Level FlightAware Transoceanic
Thu 07:59:48 PM 42.4000 -58.3500 72° East 461 531 34,000  Level New York Oceanic (ODAPS)
Thu 08:00:00 PM 42.4310 -58.2170 73° East 460 529 34,000  Level FlightAware Transoceanic
Thu 08:01:00 PM 42.4688 -58.0537 73° East 460 529 34,000  Level FlightAware Transoceanic
Thu 08:02:00 PM 42.5063 -57.8902 73° East 460 529 34,000  Level FlightAware Transoceanic
Thu 08:03:00 PM 42.5437 -57.7265 73° East 460 529 34,000  Level FlightAware Transoceanic
Thu 08:04:00 PM 42.5808 -57.5627 73° East 460 529 34,000  Level FlightAware Transoceanic
Thu 08:05:00 PM 42.6176 -57.3986 73° East 460 529 34,000  Level FlightAware Transoceanic
Thu 08:06:00 PM 42.6281 -57.3519 73° East 461 531 34,000  Level FlightAware Transoceanic
Thu 08:07:00 PM 42.6653 -57.1848 73° East 461 531 34,000  Level FlightAware Transoceanic
Thu 08:08:00 PM 42.7022 -57.0176 73° East 461 531 34,000  Level FlightAware Transoceanic
Thu 08:09:00 PM 42.7389 -56.8501 73° East 461 531 34,000  Level FlightAware Transoceanic
Thu 08:10:00 PM 42.7753 -56.6825 74° East 461 531 34,000  Level FlightAware Transoceanic
Thu 08:11:00 PM 42.8116 -56.5146 74° East 461 531 34,000  Level FlightAware Transoceanic
Thu 08:12:00 PM 42.8475 -56.3466 74° East 461 531 34,000  Level FlightAware Transoceanic
Thu 08:13:00 PM 42.8832 -56.1783 74° East 461 531 34,000  Level FlightAware Transoceanic
Thu 08:13:40 PM 42.9000 -56.0667 74° East 457 526 34,000  Level New York Oceanic (ODAPS)
Thu 08:14:00 PM 42.9187 -56.0099 74° East 461 531 34,000  Level FlightAware Transoceanic
Thu 08:15:00 PM 42.9539 -55.8413 74° East 461 531 34,000  Level FlightAware Transoceanic
Thu 08:16:00 PM 42.9888 -55.6725 74° East 461 531 34,000  Level FlightAware Transoceanic
Thu 08:17:00 PM 43.0236 -55.5034 74° East 461 531 34,000  Level FlightAware Transoceanic
Thu 08:18:00 PM 43.0580 -55.3342 74° East 461 531 34,000  Level FlightAware Transoceanic
Thu 08:19:00 PM 43.0923 -55.1648 75° East 461 531 34,000  Level FlightAware Transoceanic
Thu 08:20:00 PM 43.1388 -54.9047 75° East 457 526 34,000  Level FlightAware Transoceanic
Thu 08:21:00 PM 43.1720 -54.7380 75° East 457 526 34,000  Level FlightAware Transoceanic
Thu 08:22:00 PM 43.2049 -54.5711 75° East 457 526 34,000  Level FlightAware Transoceanic
Thu 08:23:00 PM 43.2376 -54.4040 75° East 457 526 34,000  Level FlightAware Transoceanic
Thu 08:24:00 PM 43.2700 -54.2367 75° East 457 526 34,000  Level FlightAware Transoceanic
Thu 08:25:00 PM 43.3022 -54.0693 75° East 457 526 34,000  Level FlightAware Transoceanic
Thu 08:26:00 PM 43.3341 -53.9017 75° East 457 526 34,000  Level FlightAware Transoceanic
Thu 08:27:00 PM 43.3658 -53.7339 75° East 457 526 34,000  Level FlightAware Transoceanic
Thu 08:27:57 PM 43.3667 -53.7833 76° East 454 522 34,000  Level New York Oceanic (ODAPS)
Thu 08:28:00 PM 43.3972 -53.5659 76° East 457 526 34,000  Level FlightAware Transoceanic
Thu 08:29:00 PM 43.4284 -53.3978 76° East 457 526 34,000  Level FlightAware Transoceanic
Thu 08:30:00 PM 43.4594 -53.2294 76° East 457 526 34,000  Level FlightAware Transoceanic
Thu 08:31:00 PM 43.4901 -53.0609 76° East 457 526 34,000  Level FlightAware Transoceanic
Thu 08:32:00 PM 43.5206 -52.8923 76° East 457 526 34,000  Level FlightAware Transoceanic
Thu 08:33:00 PM 43.5508 -52.7235 76° East 457 526 34,000  Level FlightAware Transoceanic
Thu 08:34:00 PM 43.5726 -52.6404 76° East 454 522 34,000  Level FlightAware Transoceanic
Thu 08:35:00 PM 43.6011 -52.4765 77° East 454 522 34,000  Level FlightAware Transoceanic
Thu 08:36:00 PM 43.6293 -52.3125 77° East 454 522 34,000  Level FlightAware Transoceanic
Thu 08:37:00 PM 43.6573 -52.1483 77° East 454 522 34,000  Level FlightAware Transoceanic
Thu 08:38:00 PM 43.6851 -51.9839 77° East 454 522 34,000  Level FlightAware Transoceanic
Thu 08:39:00 PM 43.7127 -51.8194 77° East 454 522 34,000  Level FlightAware Transoceanic
Thu 08:40:00 PM 43.7400 -51.6547 77° East 454 522 34,000  Level FlightAware Transoceanic
Thu 08:41:00 PM 43.7671 -51.4899 77° East 454 522 34,000  Level FlightAware Transoceanic
Thu 08:41:28 PM 43.7667 -51.4333 77° East 463 533 34,000  Level New York Oceanic (ODAPS)
Thu 08:42:00 PM 43.7939 -51.3249 77° East 454 522 34,000  Level FlightAware Transoceanic
Thu 08:43:00 PM 43.8205 -51.1598 77° East 454 522 34,000  Level FlightAware Transoceanic
Thu 08:44:00 PM 43.8469 -50.9946 78° East 454 522 34,000  Level FlightAware Transoceanic
Thu 08:45:00 PM 43.8730 -50.8292 78° East 454 522 34,000  Level FlightAware Transoceanic
Thu 08:46:00 PM 43.8989 -50.6636 78° East 454 522 34,000  Level FlightAware Transoceanic
Thu 08:47:00 PM 43.9434 -50.3594 78° East 463 533 34,000  Level FlightAware Transoceanic
Thu 08:48:00 PM 43.9718 -50.1798 78° East 463 533 34,000  Level FlightAware Transoceanic
Thu 08:49:00 PM 44.0000 -50.0000 71° East 463 533 34,000  Level FlightAware Transoceanic
Thu 08:50:00 PM 44.0424 -49.8309 71° East 463 533 34,000  Level FlightAware Transoceanic
Thu 08:51:00 PM 44.0846 -49.6615 71° East 463 533 34,000  Level FlightAware Transoceanic
Thu 08:52:00 PM 44.1266 -49.4918 71° East 463 533 34,000  Level FlightAware Transoceanic
Thu 08:52:22 PM 44.0000 -50.0000 71° East 468 539 34,000  Level New York Oceanic (ODAPS)
Thu 08:53:00 PM 44.1683 -49.3220 71° East 463 533 34,000  Level FlightAware Transoceanic
Thu 08:54:00 PM 44.2097 -49.1519 71° East 463 533 34,000  Level FlightAware Transoceanic
Thu 08:55:00 PM 44.2509 -48.9815 71° East 463 533 34,000  Level FlightAware Transoceanic
Thu 08:56:00 PM 44.2918 -48.8109 72° East 463 533 34,000  Level FlightAware Transoceanic
Thu 08:57:00 PM 44.3325 -48.6401 72° East 463 533 34,000  Level FlightAware Transoceanic
Thu 08:58:00 PM 44.3729 -48.4691 72° East 468 539 34,000  Level FlightAware Transoceanic
Thu 08:59:00 PM 44.4131 -48.2978 72° East 468 539 34,000  Level FlightAware Transoceanic
Thu 08:59:50 PM 44.4167 -48.2667 72° East 471 542 34,000  Level New York Oceanic (ODAPS)
Thu 09:00:00 PM 44.4530 -48.1263 72° East 468 539 34,000  Level FlightAware Transoceanic
Thu 09:01:00 PM 44.4926 -47.9545 72° East 468 539 34,000  Level FlightAware Transoceanic
Thu 09:02:00 PM 44.5320 -47.7825 72° East 468 539 34,000  Level FlightAware Transoceanic
Thu 09:03:00 PM 44.5712 -47.6103 72° East 468 539 34,000  Level FlightAware Transoceanic
Thu 09:04:00 PM 44.6101 -47.4378 72° East 468 539 34,000  Level FlightAware Transoceanic
Thu 09:05:00 PM 44.6487 -47.2651 73° East 468 539 34,000  Level FlightAware Transoceanic
Thu 09:06:00 PM 44.6566 -47.2154 73° East 471 542 34,000  Level FlightAware Transoceanic
Thu 09:07:00 PM 44.6956 -47.0393 73° East 471 542 34,000  Level FlightAware Transoceanic
Thu 09:08:00 PM 44.7344 -46.8630 73° East 471 542 34,000  Level FlightAware Transoceanic
Thu 09:09:00 PM 44.7729 -46.6865 73° East 471 542 34,000  Level FlightAware Transoceanic
Thu 09:10:00 PM 44.8111 -46.5097 73° East 471 542 34,000  Level FlightAware Transoceanic
Thu 09:11:00 PM 44.8490 -46.3327 73° East 471 542 34,000  Level FlightAware Transoceanic
Thu 09:12:00 PM 44.8867 -46.1555 73° East 471 542 34,000  Level FlightAware Transoceanic
Thu 09:13:00 PM 44.9241 -45.9780 73° East 471 542 34,000  Level FlightAware Transoceanic
Thu 09:14:00 PM 44.9613 -45.8004 74° East 471 542 34,000  Level FlightAware Transoceanic
Thu 09:15:00 PM 44.9981 -45.6224 74° East 471 542 34,000  Level FlightAware Transoceanic
Thu 09:16:00 PM 45.0347 -45.4443 74° East 471 542 34,000  Level FlightAware Transoceanic
Thu 09:17:00 PM 45.0710 -45.2659 74° East 471 542 34,000  Level FlightAware Transoceanic
Thu 09:18:00 PM 45.1070 -45.0873 74° East 471 542 34,000  Level FlightAware Transoceanic
Thu 09:19:00 PM 45.1427 -44.9085 74° East 471 542 34,000  Level FlightAware Transoceanic
Thu 09:20:00 PM 45.1782 -44.7294 74° East 471 542 34,000  Level FlightAware Transoceanic
Thu 09:21:00 PM 45.2134 -44.5502 75° East 471 542 34,000  Level FlightAware Transoceanic
Thu 09:22:00 PM 45.2483 -44.3707 75° East 471 542 34,000  Level FlightAware Transoceanic
Thu 09:23:00 PM 45.2829 -44.1910 75° East 471 542 34,000  Level FlightAware Transoceanic
Thu 09:24:00 PM 45.3173 -44.0110 75° East 471 542 34,000  Level FlightAware Transoceanic
Thu 09:25:00 PM 45.3513 -43.8309 75° East 471 542 34,000  Level FlightAware Transoceanic
Thu 09:26:00 PM 45.3851 -43.6505 75° East 471 542 34,000  Level FlightAware Transoceanic
Thu 09:27:00 PM 45.4186 -43.4700 75° East 471 542 34,000  Level FlightAware Transoceanic
Thu 09:28:00 PM 45.4518 -43.2892 75° East 471 542 34,000  Level FlightAware Transoceanic
Thu 09:29:00 PM 45.4847 -43.1082 76° East 471 542 34,000  Level FlightAware Transoceanic
Thu 09:30:00 PM 45.5173 -42.9269 76° East 471 542 34,000  Level FlightAware Transoceanic
Thu 09:31:00 PM 45.5497 -42.7455 76° East 471 542 34,000  Level FlightAware Transoceanic
Thu 09:32:00 PM 45.5817 -42.5639 76° East 471 542 34,000  Level FlightAware Transoceanic
Thu 09:33:00 PM 45.6135 -42.3820 76° East 471 542 34,000  Level FlightAware Transoceanic
Thu 09:34:00 PM 45.6450 -42.2000 76° East 471 542 34,000  Level FlightAware Transoceanic
Thu 09:35:00 PM 45.6762 -42.0177 76° East 471 542 34,000  Level FlightAware Transoceanic
Thu 09:36:00 PM 45.7071 -41.8353 76° East 471 542 34,000  Level FlightAware Transoceanic
Thu 09:37:00 PM 45.7377 -41.6526 77° East 471 542 34,000  Level FlightAware Transoceanic
Thu 09:38:00 PM 45.7680 -41.4698 77° East 471 542 34,000  Level FlightAware Transoceanic
Thu 09:39:00 PM 45.7980 -41.2868 77° East 471 542 34,000  Level FlightAware Transoceanic
Thu 09:40:00 PM 45.8278 -41.1035 77° East 471 542 34,000  Level FlightAware Transoceanic
Thu 09:41:00 PM 45.8572 -40.9201 77° East 471 542 34,000  Level FlightAware Transoceanic
Thu 09:42:00 PM 45.8864 -40.7364 77° East 471 542 34,000  Level FlightAware Transoceanic
Thu 09:43:00 PM 45.9152 -40.5526 77° East 471 542 34,000  Level FlightAware Transoceanic
Thu 09:44:00 PM 45.9438 -40.3686 77° East 471 542 34,000  Level FlightAware Transoceanic
Thu 09:45:00 PM 45.9720 -40.1844 78° East 471 542 34,000  Level FlightAware Transoceanic
Thu 09:46:00 PM 46.0000 -40.0000 70° East 471 542 34,000  Level FlightAware Transoceanic
Thu 09:47:00 PM 46.0465 -39.8151 70° East 471 542 34,000  Level FlightAware Transoceanic
Thu 09:48:00 PM 46.0927 -39.6298 70° East 471 542 34,000  Level FlightAware Transoceanic
Thu 09:49:00 PM 46.1385 -39.4443 70° East 471 542 34,000  Level FlightAware Transoceanic
Thu 09:50:00 PM 46.1841 -39.2584 71° East 471 542 34,000  Level FlightAware Transoceanic
Thu 09:51:00 PM 46.2294 -39.0723 71° East 471 542 34,000  Level FlightAware Transoceanic
Thu 09:52:00 PM 46.2744 -38.8858 71° East 471 542 34,000  Level FlightAware Transoceanic
Thu 09:53:00 PM 46.3191 -38.6990 71° East 471 542 34,000  Level FlightAware Transoceanic
Thu 09:54:00 PM 46.3634 -38.5119 71° East 471 542 34,000  Level FlightAware Transoceanic
Thu 09:55:00 PM 46.4075 -38.3245 71° East 471 542 34,000  Level FlightAware Transoceanic
Thu 09:56:00 PM 46.4512 -38.1368 71° East 471 542 34,000  Level FlightAware Transoceanic
Thu 09:57:00 PM 46.4947 -37.9489 72° East 471 542 34,000  Level FlightAware Transoceanic
Thu 09:58:00 PM 46.5378 -37.7606 72° East 471 542 34,000  Level FlightAware Transoceanic
Thu 09:59:00 PM 46.5807 -37.5720 72° East 471 542 34,000  Level FlightAware Transoceanic
Thu 10:00:00 PM 46.6232 -37.3831 72° East 471 542 34,000  Level FlightAware Transoceanic
Thu 10:01:00 PM 46.6654 -37.1939 72° East 471 542 34,000  Level FlightAware Transoceanic
Thu 10:02:00 PM 46.7073 -37.0045 72° East 471 542 34,000  Level FlightAware Transoceanic
Thu 10:03:00 PM 46.7489 -36.8147 72° East 471 542 34,000  Level FlightAware Transoceanic
Thu 10:04:00 PM 46.7902 -36.6246 72° East 471 542 34,000  Level FlightAware Transoceanic
Thu 10:05:00 PM 46.8311 -36.4343 73° East 471 542 34,000  Level FlightAware Transoceanic
Thu 10:06:00 PM 46.8717 -36.2436 73° East 471 542 34,000  Level FlightAware Transoceanic
Thu 10:07:00 PM 46.9121 -36.0527 73° East 471 542 34,000  Level FlightAware Transoceanic
Thu 10:08:00 PM 46.9521 -35.8615 73° East 471 542 34,000  Level FlightAware Transoceanic
Thu 10:09:00 PM 46.9918 -35.6700 73° East 471 542 34,000  Level FlightAware Transoceanic
Thu 10:10:00 PM 47.0311 -35.4782 73° East 471 542 34,000  Level FlightAware Transoceanic
Thu 10:11:00 PM 47.0702 -35.2862 73° East 471 542 34,000  Level FlightAware Transoceanic
Thu 10:12:00 PM 47.1089 -35.0938 74° East 471 542 34,000  Level FlightAware Transoceanic
Thu 10:13:00 PM 47.1473 -34.9012 74° East 471 542 34,000  Level FlightAware Transoceanic
Thu 10:14:00 PM 47.1854 -34.7083 74° East 471 542 34,000  Level FlightAware Transoceanic
Thu 10:15:00 PM 47.2231 -34.5151 74° East 471 542 34,000  Level FlightAware Transoceanic
Thu 10:16:00 PM 47.2606 -34.3217 74° East 471 542 34,000  Level FlightAware Transoceanic
Thu 10:17:00 PM 47.2977 -34.1280 74° East 471 542 34,000  Level FlightAware Transoceanic
Thu 10:18:00 PM 47.3344 -33.9340 74° East 471 542 34,000  Level FlightAware Transoceanic
Thu 10:19:00 PM 47.3709 -33.7397 75° East 471 542 34,000  Level FlightAware Transoceanic
Thu 10:20:00 PM 47.4070 -33.5452 75° East 471 542 34,000  Level FlightAware Transoceanic
Thu 10:21:00 PM 47.4428 -33.3504 75° East 471 542 34,000  Level FlightAware Transoceanic
Thu 10:22:00 PM 47.4783 -33.1553 75° East 471 542 34,000  Level FlightAware Transoceanic
Thu 10:23:00 PM 47.5134 -32.9600 75° East 471 542 34,000  Level FlightAware Transoceanic
Thu 10:24:00 PM 47.5482 -32.7644 75° East 471 542 34,000  Level FlightAware Transoceanic
Thu 10:25:00 PM 47.5826 -32.5686 75° East 471 542 34,000  Level FlightAware Transoceanic
Thu 10:26:00 PM 47.6168 -32.3725 76° East 471 542 34,000  Level FlightAware Transoceanic
Thu 10:27:00 PM 47.6506 -32.1761 76° East 471 542 34,000  Level FlightAware Transoceanic
Thu 10:28:00 PM 47.6840 -31.9795 76° East 471 542 34,000  Level FlightAware Transoceanic
Thu 10:29:00 PM 47.7172 -31.7827 76° East 471 542 34,000  Level FlightAware Transoceanic
Thu 10:30:00 PM 47.7499 -31.5856 76° East 471 542 34,000  Level FlightAware Transoceanic
Thu 10:31:00 PM 47.7824 -31.3882 76° East 471 542 34,000  Level FlightAware Transoceanic
Thu 10:32:00 PM 47.8145 -31.1906 76° East 471 542 34,000  Level FlightAware Transoceanic
Thu 10:33:00 PM 47.8463 -30.9928 77° East 471 542 34,000  Level FlightAware Transoceanic
Thu 10:34:00 PM 47.8777 -30.7947 77° East 471 542 34,000  Level FlightAware Transoceanic
Thu 10:35:00 PM 47.9088 -30.5964 77° East 471 542 34,000  Level FlightAware Transoceanic
Thu 10:36:00 PM 47.9395 -30.3978 77° East 471 542 34,000  Level FlightAware Transoceanic
Thu 10:37:00 PM 47.9699 -30.1990 77° East 471 542 34,000 11 Level FlightAware Transoceanic
Thu 10:38:00 PM 48.0171 -30.0203 68° East  Level Estimated
Thu 10:39:00 PM 48.0639 -29.8413 69° East  Level Estimated
Thu 10:40:00 PM 48.1099 -29.6641 69° East  Level Estimated
Thu 10:41:00 PM 48.1556 -29.4866 69° East  Level Estimated
Thu 10:42:00 PM 48.2010 -29.3088 69° East  Level Estimated
Thu 10:43:00 PM 48.2462 -29.1306 69° East  Level Estimated
Thu 10:44:00 PM 48.2911 -28.9522 69° East  Level Estimated
Thu 10:45:00 PM 48.3357 -28.7734 69° East  Level Estimated
Thu 10:46:00 PM 48.3801 -28.5944 69° East  Level Estimated
Thu 10:47:00 PM 48.4241 -28.4150 70° East  Level Estimated
Thu 10:48:00 PM 48.4679 -28.2353 70° East  Level Estimated
Thu 10:49:00 PM 48.5114 -28.0553 70° East  Level Estimated
Thu 10:50:00 PM 48.5546 -27.8750 70° East  Level Estimated
Thu 10:51:00 PM 48.5975 -27.6943 70° East  Level Estimated
Thu 10:52:00 PM 48.6402 -27.5134 70° East  Level Estimated
Thu 10:53:00 PM 48.6826 -27.3322 70° East  Level Estimated
Thu 10:54:00 PM 48.7247 -27.1507 71° East  Level Estimated
Thu 10:55:00 PM 48.7665 -26.9688 71° East  Level Estimated
Thu 10:56:00 PM 48.8080 -26.7867 71° East  Level Estimated
Thu 10:57:00 PM 48.8492 -26.6042 71° East  Level Estimated
Thu 10:58:00 PM 48.8901 -26.4215 71° East  Level Estimated
Thu 10:59:00 PM 48.9308 -26.2385 71° East  Level Estimated
Thu 11:00:00 PM 48.9712 -26.0551 71° East  Level Estimated
Thu 11:01:00 PM 49.0112 -25.8715 72° East  Level Estimated
Thu 11:02:00 PM 49.0510 -25.6876 72° East  Level Estimated
Thu 11:03:00 PM 49.0905 -25.5034 72° East  Level Estimated
Thu 11:04:00 PM 49.1297 -25.3189 72° East  Level Estimated
Thu 11:05:00 PM 49.1686 -25.1341 72° East  Level Estimated
Thu 11:06:00 PM 49.2072 -24.9490 72° East  Level Estimated
Thu 11:07:00 PM 49.2455 -24.7636 72° East  Level Estimated
Thu 11:08:00 PM 49.2835 -24.5779 73° East  Level Estimated
Thu 11:09:00 PM 49.3212 -24.3920 73° East  Level Estimated
Thu 11:10:00 PM 49.3586 -24.2057 73° East  Level Estimated
Thu 11:11:00 PM 49.3957 -24.0192 73° East  Level Estimated
Thu 11:12:00 PM 49.4325 -23.8324 73° East  Level Estimated
Thu 11:13:00 PM 49.4690 -23.6453 73° East  Level Estimated
Thu 11:14:00 PM 49.5052 -23.4580 73° East  Level Estimated
Thu 11:15:00 PM 49.5411 -23.2703 74° East  Level Estimated
Thu 11:16:00 PM 49.5768 -23.0824 74° East  Level Estimated
Thu 11:17:00 PM 49.6120 -22.8943 74° East  Level Estimated
Thu 11:18:00 PM 49.6470 -22.7058 74° East  Level Estimated
Thu 11:19:00 PM 49.6817 -22.5171 74° East  Level Estimated
Thu 11:20:00 PM 49.7161 -22.3281 74° East  Level Estimated
Thu 11:21:00 PM 49.7502 -22.1388 74° East  Level Estimated
Thu 11:22:00 PM 49.7839 -21.9493 75° East  Level Estimated
Thu 11:23:00 PM 49.8174 -21.7595 75° East  Level Estimated
Thu 11:24:00 PM 49.8505 -21.5695 75° East  Level Estimated
Thu 11:25:00 PM 49.8834 -21.3792 75° East  Level Estimated
Thu 11:26:00 PM 49.9159 -21.1886 75° East  Level Estimated
Thu 11:27:00 PM 49.9482 -20.9974 75° East  Level Estimated
Thu 11:28:00 PM 49.9801 -20.8058 75° East  Level Estimated
Thu 11:29:00 PM 50.0118 -20.6140 76° East  Level Estimated
Thu 11:30:00 PM 50.0431 -20.4220 76° East  Level Estimated
Thu 11:31:00 PM 50.0741 -20.2297 76° East  Level Estimated
Thu 11:32:00 PM 50.1048 -20.0371 76° East  Level Estimated
Thu 11:33:00 PM 50.1352 -19.8443 76° East  Level Estimated
Thu 11:34:00 PM 50.1653 -19.6513 76° East  Level Estimated
Thu 11:35:00 PM 50.1950 -19.4580 76° East  Level Estimated
Thu 11:36:00 PM 50.2244 -19.2645 77° East  Level Estimated
Thu 11:37:00 PM 50.2535 -19.0708 77° East  Level Estimated
Thu 11:38:00 PM 50.2823 -18.8768 77° East  Level Estimated
Thu 11:39:00 PM 50.3108 -18.6826 77° East  Level Estimated
Thu 11:40:00 PM 50.3389 -18.4881 77° East  Level Estimated
Thu 11:41:00 PM 50.3667 -18.2934 77° East  Level Estimated
Thu 11:42:00 PM 50.3942 -18.0985 77° East  Level Estimated
Thu 11:43:00 PM 50.4213 -17.9034 78° East  Level Estimated
Thu 11:44:00 PM 50.4482 -17.7080 78° East  Level Estimated
Thu 11:45:00 PM 50.4747 -17.5125 78° East  Level Estimated
Thu 11:46:00 PM 50.5008 -17.3167 78° East  Level Estimated
Thu 11:47:00 PM 50.5267 -17.1207 78° East  Level Estimated
Thu 11:48:00 PM 50.5522 -16.9245 78° East  Level Estimated
Thu 11:49:00 PM 50.5774 -16.7280 79° East  Level Estimated
Thu 11:50:00 PM 50.6022 -16.5314 79° East  Level Estimated
Thu 11:51:00 PM 50.6267 -16.3345 79° East  Level Estimated
Thu 11:52:00 PM 50.6509 -16.1375 79° East  Level Estimated
Thu 11:53:00 PM 50.6748 -15.9402 79° East  Level Estimated
Thu 11:54:00 PM 50.6983 -15.7428 79° East  Level Estimated
Thu 11:55:00 PM 50.7215 -15.5451 79° East  Level Estimated
Thu 11:56:00 PM 50.7443 -15.3473 80° East  Level Estimated
Thu 11:57:00 PM 50.7668 -15.1493 80° East  Level Estimated
Thu 11:58:00 PM 50.7890 -14.9510 80° East  Level Estimated
Thu 11:59:00 PM 50.8109 -14.7526 80° East  Level Estimated
Fri 12:00:00 AM 50.8324 -14.5540 80° East  Level Estimated
Fri 12:01:00 AM 50.8536 -14.3552 80° East  Level Estimated
Fri 12:02:00 AM 50.8744 -14.1563 81° East  Level Estimated
Fri 12:03:00 AM 50.8949 -13.9572 81° East  Level Estimated
Fri 12:04:00 AM 50.9151 -13.7578 81° East  Level Estimated
Fri 12:05:00 AM 50.9349 -13.5584 81° East  Level Estimated
Fri 12:06:00 AM 50.9544 -13.3587 81° East  Level Estimated
Fri 12:07:00 AM 50.9735 -13.1589 81° East  Level Estimated
Fri 12:07:42 AM 50.9930 -10.7390 81° East 513 590 35,000  Level FlightAware ADS-B
Fri 12:08:00 AM 50.9923 -12.9589 81° East  Level Estimated
Fri 12:08:22 AM 51.0230 -10.5960 72° East 513 590 35,000  Level FlightAware ADS-B
Fri 12:09:02 AM 51.0530 -10.4540 71° East 513 590 35,000  Level FlightAware ADS-B
Fri 12:09:47 AM 51.0870 -10.2900 72° East 514 592 35,000  Level FlightAware ADS-B
Fri 12:10:27 AM 51.1150 -10.1510 72° East 514 592 35,000  Level FlightAware ADS-B
Fri 12:11:12 AM 51.1480 -9.9880 72° East 510 587 35,000  Level FlightAware ADS-B
Fri 12:11:52 AM 51.1770 -9.8470 72° East 509 586 35,000  Level FlightAware ADS-B
Fri 12:12:32 AM 51.2050 -9.7040 73° East 507 583 35,000  Level FlightAware ADS-B
Fri 12:13:17 AM 51.2380 -9.5400 72° East 505 581 35,000  Level FlightAware ADS-B
Fri 12:13:57 AM 51.2670 -9.3950 72° East 503 579 35,000  Level FlightAware ADS-B
Fri 12:14:42 AM 51.2980 -9.2340 73° East 505 581 35,000  Level FlightAware ADS-B
Fri 12:15:22 AM 51.3250 -9.0920 73° East 505 581 35,000 -1,364 Level FlightAware ADS-B
Fri 12:15:48 AM 51.3453 -8.9887 73° East 470 541 33,500  Descending FlightAware UK
Fri 12:16:02 AM 51.3510 -8.9580 73° East 504 580 35,000  Climbing FlightAware ADS-B
Fri 12:16:06 AM 51.3576 -8.9247 73° East 468 539 33,500 -5,625 Descending FlightAware UK
Fri 12:16:18 AM 51.3658 -8.8819 73° East 468 539 33,500  Level FlightAware UK
Fri 12:16:36 AM 51.3781 -8.8179 73° East 468 539 33,500 4,737 Level FlightAware UK
Fri 12:16:37 AM 51.3750 -8.8350 73° East 504 580 35,000 -667 Climbing FlightAware ADS-B
Fri 12:16:54 AM 51.3899 -8.7537 73° East 468 539 33,300 -3,429 Descending FlightAware UK
Fri 12:17:12 AM 51.4021 -8.6897 73° East 468 539 33,000 2,357 Descending FlightAware UK
Fri 12:17:22 AM 51.4050 -8.6750 73° East 505 581 34,400 -1,667 Climbing FlightAware ADS-B
Fri 12:17:30 AM 51.4143 -8.6256 73° East 474 545 32,500 -6,600 Descending FlightAware UK
Fri 12:17:42 AM 51.4223 -8.5826 73° East 476 548 32,200 -1,000 Descending FlightAware UK
Fri 12:18:00 AM 51.4344 -8.5182 73° East 474 545 32,000 3,120 Descending FlightAware UK
Fri 12:18:07 AM 51.4360 -8.5100 73° East 505 581 33,500 -1,250 Climbing FlightAware ADS-B
Fri 12:18:24 AM 51.4504 -8.4324 73° East 474 545 31,500 -3,429 Descending FlightAware UK
Fri 12:18:42 AM 51.4623 -8.3679 73° East 476 548 31,500 3,214 Level FlightAware UK
Fri 12:18:52 AM 51.4670 -8.3450 73° East 504 580 33,000  Climbing FlightAware ADS-B
Fri 12:19:12 AM 51.4822 -8.2603 73° East 474 545 31,500 -2,368 Descending FlightAware UK
Fri 12:19:30 AM 51.4945 -8.1953 73° East 474 545 31,500 4,500 Level FlightAware UK
Fri 12:19:32 AM 51.4920 -8.2110 73° East 502 578 33,000  Climbing FlightAware ADS-B
Fri 12:19:48 AM 51.5068 -8.1311 73° East 474 545 31,500 -2,647 Descending FlightAware UK
Fri 12:20:06 AM 51.5188 -8.0668 73° East 474 545 31,500 3,103 Level FlightAware UK
Fri 12:20:17 AM 51.5230 -8.0410 73° East 501 577 33,000  Climbing FlightAware ADS-B
Fri 12:20:36 AM 51.5382 -7.9596 73° East 476 548 31,500 -2,432 Descending FlightAware UK
Fri 12:20:54 AM 51.5500 -7.8944 74° East 476 548 31,500 4,286 Level FlightAware UK
Fri 12:20:57 AM 51.5490 -7.8990 74° East 501 577 33,000  Climbing FlightAware ADS-B
Fri 12:21:12 AM 51.5614 -7.8300 74° East 474 545 31,500 -2,727 Descending FlightAware UK
Fri 12:21:30 AM 51.5729 -7.7657 74° East 476 548 31,500 3,000 Level FlightAware UK
Fri 12:21:42 AM 51.5780 -7.7370 74° East 500 575 33,000  Climbing FlightAware ADS-B
Fri 12:22:00 AM 51.5923 -7.6585 74° East 476 548 31,500 -2,500 Descending FlightAware UK
Fri 12:22:18 AM 51.6042 -7.5935 74° East 476 548 31,500 4,091 Level FlightAware UK
Fri 12:22:22 AM 51.6020 -7.6030 74° East 499 574 33,000  Climbing FlightAware ADS-B
Fri 12:22:42 AM 51.6193 -7.5085 74° East 476 548 31,500 -2,368 Descending FlightAware UK
Fri 12:23:00 AM 51.6307 -7.4436 74° East 474 545 31,500 3,600 Level FlightAware UK
Fri 12:23:07 AM 51.6310 -7.4400 74° East 498 573 33,000  Climbing FlightAware ADS-B
Fri 12:23:24 AM 51.6457 -7.3581 74° East 474 545 31,500 -2,571 Descending FlightAware UK
Fri 12:23:42 AM 51.6570 -7.2939 74° East 472 543 31,500 5,000 Level FlightAware UK
Fri 12:23:42 AM 51.6530 -7.3170 74° East 498 573 33,000  Climbing FlightAware ADS-B
Fri 12:24:00 AM 51.6680 -7.2296 74° East 472 543 31,500 -2,500 Descending FlightAware UK
Fri 12:24:18 AM 51.6793 -7.1652 74° East 474 545 31,500 3,333 Level FlightAware UK
Fri 12:24:27 AM 51.6800 -7.1620 74° East 502 578 33,000  Climbing FlightAware ADS-B
Fri 12:24:42 AM 51.6943 -7.0791 74° East 474 545 31,500 -2,727 Descending FlightAware UK
Fri 12:25:00 AM 51.7056 -7.0145 74° East 474 545 31,500 3,000 Level FlightAware UK
Fri 12:25:12 AM 51.7080 -7.0010 74° East 500 575 33,000  Climbing FlightAware ADS-B
Fri 12:25:30 AM 51.7241 -6.9067 74° East 476 548 31,500 -2,500 Descending FlightAware UK
Fri 12:25:48 AM 51.7351 -6.8422 74° East 474 545 31,500 4,091 Level FlightAware UK
Fri 12:25:52 AM 51.7340 -6.8510 74° East 500 575 33,000  Climbing FlightAware ADS-B
Fri 12:26:12 AM 51.7497 -6.7561 74° East 474 545 31,500 -2,368 Descending FlightAware UK
Fri 12:26:30 AM 51.7608 -6.6909 75° East 476 548 31,500 4,500 Level FlightAware UK
Fri 12:26:32 AM 51.7600 -6.6970 75° East 500 575 33,000  Climbing FlightAware ADS-B
Fri 12:26:48 AM 51.7718 -6.6264 75° East 476 548 31,500 -2,571 Descending FlightAware UK
Fri 12:27:07 AM 51.7772 -6.5594 82° East 474 545 31,500  Level FlightAware UK
Fri 12:27:25 AM 51.7748 -6.4919 93° East 474 545 31,500  Level FlightAware UK
Fri 12:27:42 AM 51.7706 -6.4256 96° East 476 548 31,500  Level FlightAware UK
Fri 12:28:01 AM 51.7661 -6.3579 96° East 474 545 31,500  Level FlightAware UK
Fri 12:28:18 AM 51.7615 -6.2918 96° East 474 545 31,500 3,462 Level FlightAware UK
Fri 12:28:27 AM 51.7600 -6.2690 96° East 501 577 33,000  Climbing FlightAware ADS-B
Fri 12:28:42 AM 51.7558 -6.2026 96° East 476 548 31,500 -2,727 Descending FlightAware UK
Fri 12:29:00 AM 51.7525 -6.1358 94° East 474 545 31,500 3,600 Level FlightAware UK
Fri 12:29:07 AM 51.7520 -6.1220 94° East 498 573 33,000  Climbing FlightAware ADS-B
Fri 12:29:24 AM 51.7488 -6.0470 94° East 472 543 31,500 -2,571 Descending FlightAware UK
Fri 12:29:42 AM 51.7458 -5.9813 94° East 472 543 31,500 3,913 Level FlightAware UK
Fri 12:29:47 AM 51.7450 -5.9770 94° East 499 574 33,000  Climbing FlightAware ADS-B
Fri 12:30:06 AM 51.7406 -5.8920 94° East 474 545 31,500 -2,432 Descending FlightAware UK
Fri 12:30:24 AM 51.7360 -5.8257 96° East 474 545 31,500 3,462 Level FlightAware UK
Fri 12:30:32 AM 51.7340 -5.8080 96° East 499 574 33,000  Climbing FlightAware ADS-B
Fri 12:30:48 AM 51.7296 -5.7373 96° East 474 545 31,500 -2,647 Descending FlightAware UK
Fri 12:31:06 AM 51.7249 -5.6710 96° East 476 548 31,500 3,750 Level FlightAware UK
Fri 12:31:12 AM 51.7240 -5.6570 96° East 497 572 33,000  Climbing FlightAware ADS-B
Fri 12:31:31 AM 51.7188 -5.5818 96° East 474 545 31,500 -2,500 Descending FlightAware UK
Fri 12:31:48 AM 51.7144 -5.5163 96° East 474 545 31,500 3,462 Level FlightAware UK
Fri 12:31:57 AM 51.7130 -5.4970 96° East 494 568 33,000  Climbing FlightAware ADS-B
Fri 12:32:13 AM 51.7083 -5.4276 96° East 474 545 31,500 -2,647 Descending FlightAware UK
Fri 12:32:31 AM 51.7037 -5.3618 96° East 474 545 31,500 3,750 Level FlightAware UK
Fri 12:32:37 AM 51.7030 -5.3500 96° East 495 570 33,000  Climbing FlightAware ADS-B
Fri 12:32:55 AM 51.6977 -5.2743 96° East 474 545 31,500 -2,667 Descending FlightAware UK
Fri 12:33:13 AM 51.6930 -5.2084 96° East 474 545 31,400 3,333 Descending FlightAware UK
Fri 12:33:22 AM 51.6910 -5.1840 96° East 493 567 33,000  Climbing FlightAware ADS-B
Fri 12:33:37 AM 51.6868 -5.1219 96° East 472 543 31,400 -2,727 Descending FlightAware UK
Fri 12:33:55 AM 51.6819 -5.0557 97° East 470 541 31,500 3,840 Climbing FlightAware UK
Fri 12:34:02 AM 51.6800 -5.0350 97° East 494 568 33,000  Climbing FlightAware ADS-B
Fri 12:34:19 AM 51.6758 -4.9684 97° East 470 541 31,500 -2,571 Descending FlightAware UK
Fri 12:34:37 AM 51.6709 -4.9021 97° East 472 543 31,500 3,214 Level FlightAware UK
Fri 12:34:47 AM 51.6690 -4.8760 97° East 496 571 33,000  Climbing FlightAware ADS-B
Fri 12:35:07 AM 51.6625 -4.7932 97° East 472 543 31,500 -2,368 Descending FlightAware UK
Fri 12:35:25 AM 51.6575 -4.7267 97° East 472 543 31,500 4,500 Level FlightAware UK
Fri 12:35:27 AM 51.6570 -4.7290 97° East 495 570 33,000  Climbing FlightAware ADS-B
Fri 12:35:43 AM 51.6523 -4.6609 97° East 472 543 31,500 -2,647 Descending FlightAware UK
Fri 12:36:01 AM 51.6473 -4.5950 97° East 472 543 31,500 3,750 Level FlightAware UK
Fri 12:36:07 AM 51.6460 -4.5840 97° East 495 570 33,000  Climbing FlightAware ADS-B
Fri 12:36:25 AM 51.6405 -4.5073 97° East 470 541 31,500 -2,500 Descending FlightAware UK
Fri 12:36:43 AM 51.6354 -4.4418 97° East 470 541 31,500 3,333 Level FlightAware UK
Fri 12:36:52 AM 51.6330 -4.4170 97° East 491 565 33,000  Climbing FlightAware ADS-B
Fri 12:37:07 AM 51.6283 -4.3541 97° East 466 536 31,500 -2,727 Descending FlightAware UK
Fri 12:37:25 AM 51.6230 -4.2884 97° East 466 536 31,500 4,091 Level FlightAware UK
Fri 12:37:29 AM 51.6221 -4.2772 97° East 490 564 33,000  Climbing FlightAware ADS-B
Fri 12:37:49 AM 51.6161 -4.2021 97° East 466 536 31,500  Descending FlightAware UK
Fri 12:38:00 AM 51.6129 -4.1640 97° East 490 564 33,000  Climbing FlightAware ADS-B
Fri 12:38:19 AM 51.6073 -4.0943 97° East 464 534 31,500  Descending FlightAware UK
Fri 12:38:31 AM 51.6038 -4.0532 97° East 491 565 33,000  Climbing FlightAware ADS-B
Fri 12:38:49 AM 51.5986 -3.9861 97° East 466 536 31,500  Descending FlightAware UK
Fri 12:39:01 AM 51.5948 -3.9443 97° East 493 567 33,000  Climbing FlightAware ADS-B
Fri 12:39:19 AM 51.5895 -3.8775 97° East 470 541 31,500 -2,595 Descending FlightAware UK
Fri 12:39:38 AM 51.5839 -3.8115 98° East 470 541 31,400 4,737 Descending FlightAware UK
Fri 12:39:38 AM 51.5836 -3.8115 98° East 492 566 33,000 -706 Climbing FlightAware ADS-B
Fri 12:39:55 AM 51.5784 -3.7480 98° East 464 534 31,200 -1,161 Descending FlightAware UK
Fri 12:40:09 AM 51.5743 -3.7014 98° East 485 558 32,400 -1,600 Climbing FlightAware ADS-B
Fri 12:40:25 AM 51.5692 -3.6411 98° East 460 529 30,400 -4,059 Descending FlightAware UK
Fri 12:40:43 AM 51.5637 -3.5779 98° East 460 529 30,100 1,459 Descending FlightAware UK
Fri 12:41:02 AM 51.5583 -3.5158 98° East 477 549 31,300 -1,000 Climbing FlightAware ADS-B
Fri 12:41:19 AM 51.5532 -3.4535 98° East 450 518 29,500 -3,943 Descending FlightAware UK
Fri 12:41:37 AM 51.5479 -3.3922 98° East 446 513 29,000 2,250 Descending FlightAware UK
Fri 12:41:43 AM 51.5458 -3.3726 98° East 464 534 30,400 -1,500 Climbing FlightAware ADS-B
Fri 12:42:01 AM 51.5404 -3.3108 98° East 444 511 28,400 -3,892 Descending FlightAware UK
Fri 12:42:20 AM 51.5348 -3.2492 98° East 444 511 28,000 2,500 Descending FlightAware UK
Fri 12:42:25 AM 51.5332 -3.2321 98° East 463 533 29,400 -1,304 Climbing FlightAware ADS-B
Fri 12:42:43 AM 51.5276 -3.1696 98° East 440 506 27,500 -1,125 Descending FlightAware UK
Fri 12:42:57 AM 51.5235 -3.1244 98° East 452 520 28,800 -1,161 Climbing FlightAware ADS-B
Fri 12:43:14 AM 51.5187 -3.0704 98° East 432 497 26,900 -1,455 Descending FlightAware UK
Fri 12:43:30 AM 51.5137 -3.0161 98° East 449 517 28,000 -1,543 Climbing FlightAware ADS-B
Fri 12:43:49 AM 51.5080 -2.9529 98° East 428 493 26,000 -1,371 Descending FlightAware UK
Fri 12:44:05 AM 51.5033 -2.9036 98° East 446 513 27,200 -1,297 Climbing FlightAware ADS-B
Fri 12:44:26 AM 51.4971 -2.8349 98° East 424 488 25,200 -1,333 Descending FlightAware UK
Fri 12:44:41 AM 51.4923 -2.7855 98° East 442 509 26,400 -1,200 Climbing FlightAware ADS-B
Fri 12:44:56 AM 51.4879 -2.7376 98° East 420 483 24,600 -1,600 Descending FlightAware UK
Fri 12:45:11 AM 51.4833 -2.6886 98° East 435 501 25,600 -2,000 Climbing FlightAware ADS-B
Fri 12:45:26 AM 51.4789 -2.6421 98° East 416 479 23,600 -1,875 Descending FlightAware UK
Fri 12:45:43 AM 51.4739 -2.5893 98° East 429 494 24,600 -1,833 Climbing FlightAware ADS-B
Fri 12:46:02 AM 51.4683 -2.5294 98° East 408 470 22,500 -1,742 Descending FlightAware UK
Fri 12:46:14 AM 51.4646 -2.4929 98° East 423 487 23,700 -2,000 Climbing FlightAware ADS-B
Fri 12:46:32 AM 51.4593 -2.4362 98° East 402 463 21,500 -2,000 Descending FlightAware UK
Fri 12:46:44 AM 51.4557 -2.4005 98° East 418 481 22,700 -1,800 Climbing FlightAware ADS-B
Fri 12:47:02 AM 51.4505 -2.3453 98° East 398 458 20,600 -1,800 Descending FlightAware UK
Fri 12:47:14 AM 51.4468 -2.3094 98° East 412 474 21,800 -1,800 Climbing FlightAware ADS-B
Fri 12:47:32 AM 51.4416 -2.2554 98° East 390 449 19,700 -1,800 Descending FlightAware UK
Fri 12:47:44 AM 51.4379 -2.2186 98° East 407 468 20,900 -1,800 Climbing FlightAware ADS-B
Fri 12:48:02 AM 51.4329 -2.1666 98° East 386 444 18,800 -1,935 Descending FlightAware UK
Fri 12:48:15 AM 51.4290 -2.1288 98° East 402 463 19,900 -1,800 Climbing FlightAware ADS-B
Fri 12:48:32 AM 51.4242 -2.0786 98° East 382 440 17,900 -1,800 Descending FlightAware UK
Fri 12:48:45 AM 51.4202 -2.0408 98° East 397 457 19,000 -1,800 Climbing FlightAware ADS-B
Fri 12:49:02 AM 51.4152 -1.9911 98° East 378 435 17,000 -1,742 Descending FlightAware UK
Fri 12:49:16 AM 51.4113 -1.9520 98° East 392 451 18,100 -1,800 Climbing FlightAware ADS-B
Fri 12:49:32 AM 51.4066 -1.9059 98° East 374 430 16,100 -1,800 Descending FlightAware UK
Fri 12:49:46 AM 51.4025 -1.8659 98° East 387 445 17,200 -1,800 Climbing FlightAware ADS-B
Fri 12:50:02 AM 51.3981 -1.8212 98° East 370 426 15,200 -1,742 Descending FlightAware UK
Fri 12:50:17 AM 51.3936 -1.7793 98° East 383 441 16,300 -1,600 Climbing FlightAware ADS-B
Fri 12:50:32 AM 51.3894 -1.7368 98° East 368 423 14,400 -1,556 Descending FlightAware UK
Fri 12:50:44 AM 51.3864 -1.7056 98° East 379 436 15,600 1,920 Climbing FlightAware ADS-B
Fri 12:50:57 AM 51.3863 -1.6697 90° East 375 432 15,200 -1,565 Descending FlightAware ADS-B
Fri 12:51:07 AM 51.3888 -1.6425 82° East 368 423 15,000 -4,966 Descending FlightAware ADS-B
Fri 12:51:26 AM 51.3951 -1.5907 82° East 356 410 12,800 -2,000 Descending FlightAware UK
Fri 12:51:37 AM 51.3987 -1.5621 82° East 363 418 14,000 -1,800 Climbing FlightAware ADS-B
Fri 12:51:56 AM 51.4048 -1.5120 82° East 352 405 11,900 -1,688 Descending FlightAware UK
Fri 12:52:09 AM 51.4086 -1.4792 82° East 357 411 13,100 -1,600 Climbing FlightAware ADS-B
Fri 12:52:26 AM 51.4141 -1.4336 82° East 348 400 11,100 -1,500 Descending FlightAware UK
Fri 12:52:29 AM 51.4141 -1.4285 82° East 356 410 12,600 3,882 Climbing FlightAware ADS-B
Fri 12:52:43 AM 51.4151 -1.3914 88° East 356 410 12,200 -1,500 Descending FlightAware ADS-B
Fri 12:53:01 AM 51.4125 -1.3449 95° East 352 405 11,800 -4,054 Descending FlightAware ADS-B
Fri 12:53:20 AM 51.4067 -1.2942 95° East 340 391 9,700 -1,800 Descending FlightAware UK
Fri 12:53:31 AM 51.4036 -1.2671 95° East 349 402 10,900 -1,600 Climbing FlightAware ADS-B
Fri 12:53:50 AM 51.3982 -1.2187 95° East 332 382 8,900 -968 Descending FlightAware UK
Fri 12:54:02 AM 51.3946 -1.1905 95° East 338 389 10,400 -200 Climbing FlightAware ADS-B
Fri 12:54:20 AM 51.3894 -1.1462 95° East 308 354 8,800 -400 Descending FlightAware UK
Fri 12:54:32 AM 51.3862 -1.1194 95° East 313 360 10,200 -600 Climbing FlightAware ADS-B
Fri 12:54:50 AM 51.3815 -1.0784 95° East 290 334 8,500 -444 Descending FlightAware UK
Fri 12:54:59 AM 51.3792 -1.0597 95° East 301 346 10,000 -500 Climbing FlightAware ADS-B
Fri 12:55:14 AM 51.3754 -1.0263 95° East 288 331 8,300 -800 Descending FlightAware UK
Fri 12:55:14 AM 51.3753 -1.0265 95° East 297 342 9,800 4,875 Climbing FlightAware ADS-B
Fri 12:55:30 AM 51.3715 -0.9943 101° East 294 338 9,600 -968 Descending FlightAware ADS-B
Fri 12:55:45 AM 51.3676 -0.9617 101° East 295 339 9,300 -1,000 Descending FlightAware ADS-B
Fri 12:56:00 AM 51.3638 -0.9295 101° East 293 337 9,100 -600 Descending FlightAware ADS-B
Fri 12:56:15 AM 51.3598 -0.8968 101° East 291 335 9,000 -194 Descending FlightAware ADS-B
Fri 12:56:31 AM 51.3560 -0.8644 101° East 292 336 9,000 -375 Level FlightAware ADS-B
Fri 12:56:47 AM 51.3519 -0.8310 101° East 291 335 8,800 -968 Descending FlightAware ADS-B
Fri 12:57:02 AM 51.3480 -0.7990 101° East 290 334 8,500 -1,043 Descending FlightAware ADS-B
Fri 12:57:10 AM 51.3462 -0.7825 100° East 290 334 8,400 -1,091 Descending FlightAware ADS-B
Fri 12:57:13 AM 51.3458 -0.7762 96° East 290 334 8,300 -1,000 Descending FlightAware ADS-B
Fri 12:57:16 AM 51.3457 -0.7690 91° East 288 331 8,300 -1,000 Level FlightAware ADS-B
Fri 12:57:19 AM 51.3457 -0.7622 90° East 288 331 8,200 -1,636 Descending FlightAware ADS-B
Fri 12:57:27 AM 51.3463 -0.7461 87° East 287 330 8,000 -1,429 Descending FlightAware ADS-B
Fri 12:57:40 AM 51.3481 -0.7183 84° East 286 329 7,700 -1,071 Descending FlightAware ADS-B
Fri 12:57:55 AM 51.3504 -0.6868 83° East 282 325 7,500 -1,071 Descending FlightAware ADS-B
Fri 12:58:08 AM 51.3524 -0.6596 83° East 280 322 7,200 -1,263 Descending FlightAware ADS-B
Fri 12:58:14 AM 51.3530 -0.6473 86° East 279 321 7,100 -923 Descending FlightAware ADS-B
Fri 12:58:21 AM 51.3531 -0.6329 89° East 279 321 7,000 -273 Descending FlightAware ADS-B
Fri 12:58:36 AM 51.3522 -0.6029 93° East 282 325 7,000  Level FlightAware ADS-B
Fri 12:58:51 AM 51.3508 -0.5717 94° East 283 326 7,000  Level FlightAware ADS-B
Fri 12:59:06 AM 51.3494 -0.5404 94° East 281 323 7,000  Level FlightAware ADS-B
Fri 12:59:21 AM 51.3480 -0.5089 94° East 279 321 7,000 -200 Level FlightAware ADS-B
Fri 12:59:36 AM 51.3466 -0.4776 94° East 280 322 6,900 -387 Descending FlightAware ADS-B
Fri 12:59:52 AM 51.3451 -0.4462 94° East 281 323 6,800 -375 Descending FlightAware ADS-B
Fri 01:00:08 AM 51.3434 -0.4122 95° East 281 323 6,700 -231 Descending FlightAware ADS-B
Fri 01:00:18 AM 51.3425 -0.3926 94° East 280 322 6,700 -429 Level FlightAware ADS-B
Fri 01:00:22 AM 51.3425 -0.3847 90° East 279 321 6,600 -400 Descending FlightAware ADS-B
Fri 01:00:33 AM 51.3431 -0.3619 88° East 278 320 6,600 -261 Level FlightAware ADS-B
Fri 01:00:45 AM 51.3444 -0.3371 85° East 276 318 6,500 -444 Descending FlightAware ADS-B
Fri 01:01:00 AM 51.3462 -0.3062 85° East 270 311 6,400 -581 Descending FlightAware ADS-B
Fri 01:01:16 AM 51.3480 -0.2764 84° East 262 302 6,200 -581 Descending FlightAware ADS-B
Fri 01:01:31 AM 51.3499 -0.2473 84° East 253 291 6,100 -600 Descending FlightAware ADS-B
Fri 01:01:46 AM 51.3516 -0.2195 84° East 246 283 5,900 -581 Descending FlightAware ADS-B
Fri 01:02:02 AM 51.3533 -0.1911 85° East 242 278 5,800 -522 Descending FlightAware ADS-B
Fri 01:02:09 AM 51.3542 -0.1785 83° East 241 277 5,700 -600 Descending FlightAware ADS-B
Fri 01:02:12 AM 51.3549 -0.1731 78° East 241 277 5,700  Level FlightAware ADS-B
Fri 01:02:15 AM 51.3557 -0.1678 76° East 240 276 5,700  Level FlightAware ADS-B
Fri 01:02:19 AM 51.3570 -0.1616 72° East 240 276 5,700 -857 Level FlightAware ADS-B
Fri 01:02:22 AM 51.3582 -0.1563 70° East 239 275 5,600 -857 Descending FlightAware ADS-B
Fri 01:02:26 AM 51.3600 -0.1506 63° Northeast 239 275 5,600  Level FlightAware ADS-B
Fri 01:02:29 AM 51.3621 -0.1453 58° Northeast 236 272 5,600  Level FlightAware ADS-B
Fri 01:02:33 AM 51.3643 -0.1408 51° Northeast 235 270 5,600 -857 Level FlightAware ADS-B
Fri 01:02:36 AM 51.3669 -0.1370 43° Northeast 231 266 5,500 -750 Descending FlightAware ADS-B
Fri 01:02:41 AM 51.3708 -0.1325 35° Northeast 226 260 5,500  Level FlightAware ADS-B
Fri 01:02:44 AM 51.3740 -0.1300 26° Northeast 223 257 5,500  Level FlightAware ADS-B
Fri 01:02:48 AM 51.3772 -0.1282 19° North 218 251 5,500  Level FlightAware ADS-B
Fri 01:02:51 AM 51.3803 -0.1271 12° North 215 247 5,500  Level FlightAware ADS-B
Fri 01:02:54 AM 51.3837 -0.1266 North 211 243 5,500 -857 Level FlightAware ADS-B
Fri 01:02:58 AM 51.3875 -0.1265 North 209 241 5,400 -857 Descending FlightAware ADS-B
Fri 01:03:01 AM 51.3903 -0.1266 359° North 207 238 5,400 -429 Level FlightAware ADS-B
Fri 01:03:12 AM 51.4001 -0.1273 357° North 199 229 5,300 -1,043 Descending FlightAware ADS-B
Fri 01:03:24 AM 51.4115 -0.1283 357° North 191 220 5,000 -1,429 Descending FlightAware ADS-B
Fri 01:03:33 AM 51.4194 -0.1288 358° North 190 219 4,800 -1,143 Descending FlightAware ADS-B
Fri 01:03:45 AM 51.4298 -0.1294 358° North 187 215 4,600 -1,333 Descending FlightAware ADS-B
Fri 01:03:51 AM 51.4350 -0.1298 357° North 185 213 4,400 -1,565 Descending FlightAware ADS-B
Fri 01:04:08 AM 51.4489 -0.1311 357° North 184 212 4,000 -1,364 Descending FlightAware ADS-B
Fri 01:04:13 AM 51.4535 -0.1318 355° North 184 212 3,900 -1,333 Descending FlightAware ADS-B
Fri 01:04:17 AM 51.4563 -0.1326 350° North 183 211 3,800 -1,714 Descending FlightAware ADS-B
Fri 01:04:20 AM 51.4594 -0.1343 341° North 182 209 3,700 -1,500 Descending FlightAware ADS-B
Fri 01:04:25 AM 51.4628 -0.1375 330° Northwest 180 207 3,600 -667 Descending FlightAware ADS-B
Fri 01:04:29 AM 51.4652 -0.1408 319° Northwest 180 207 3,600 -667 Level FlightAware ADS-B
Fri 01:04:34 AM 51.4677 -0.1458 309° West 180 207 3,500 -600 Descending FlightAware ADS-B
Fri 01:04:39 AM 51.4698 -0.1515 301° West 181 208 3,500 -667 Level FlightAware ADS-B
Fri 01:04:43 AM 51.4713 -0.1563 297° West 182 209 3,400 -750 Descending FlightAware ADS-B
Fri 01:04:55 AM 51.4754 -0.1711 294° West 182 209 3,300 -800 Descending FlightAware ADS-B
Fri 01:04:58 AM 51.4763 -0.1750 291° West 181 208 3,200 -1,000 Descending FlightAware ADS-B
Fri 01:05:01 AM 51.4770 -0.1794 284° West 181 208 3,200 -667 Level FlightAware ADS-B
Fri 01:05:07 AM 51.4776 -0.1873 277° West 183 211 3,100 -1,385 Descending FlightAware ADS-B
Fri 01:05:14 AM 51.4778 -0.1965 272° West 183 211 2,900 -1,636 Descending FlightAware ADS-B
Fri 01:05:18 AM 51.4778 -0.2026 270° West 179 206 2,800 -6,000 Descending FlightAware ADS-B
Fri 01:05:33 AM 51.4779 -0.2217 270° West 174 200 1,000 -1,000 Descending FlightAware UK
Fri 01:05:36 AM 51.4780 -0.2254 270° West 170 196 2,500 -1,000 Climbing FlightAware ADS-B
Fri 01:05:51 AM 51.4780 -0.2436 270° West 168 193 700 -857 Descending FlightAware UK
Fri 01:05:57 AM 51.4780 -0.2509 270° West 161 185 2,200 -750 Climbing FlightAware ADS-B
Fri 01:06:15 AM 51.4780 -0.2722 270° West 164 189 400 -960 Descending FlightAware UK
Fri 01:06:22 AM 51.4781 -0.2807 270° West 159 183 1,800 1,429 Climbing FlightAware ADS-B
Fri 01:06:57 AM 51.4780 -0.3160 270° West 153 176 1,400 -873 Descending FlightAware ADS-B
Fri 01:07:17 AM 51.4779 -0.3421 270° West 159 183 1,000 -811 Descending FlightAware ADS-B
Fri 01:07:34 AM 51.4778 -0.3596 269° West 144 166 900 -554 Descending FlightAware ADS-B
Fri 01:08:22 AM 51.4780 -0.3970 271° West 151 174 400 -625 Descending FlightAware ADS-B
Fri 01:09:17 AM 51.4770 -0.4530 268° West 149 171 -436 Descending FlightAware ADS-B

Login

Don't have an account? Register now (free) for customized features, flight alerts, and more!